sensor_id;sensor_type;location;lat;lon;timestamp;pressure;altitude;pressure_sealevel;temperature;humidity
12987;BME280;58897;51.960;5.582;2023-02-13T00:00:13;103492.53;;;7.08;100.00
12987;BME280;58897;51.960;5.582;2023-02-13T00:02:40;103496.25;;;7.05;100.00
12987;BME280;58897;51.960;5.582;2023-02-13T00:05:07;103493.56;;;7.05;100.00
12987;BME280;58897;51.960;5.582;2023-02-13T00:07:33;103482.66;;;7.08;100.00
12987;BME280;58897;51.960;5.582;2023-02-13T00:09:59;103496.41;;;7.02;100.00
12987;BME280;58897;51.960;5.582;2023-02-13T00:12:26;103489.28;;;7.01;100.00
12987;BME280;58897;51.960;5.582;2023-02-13T00:14:52;103493.59;;;6.87;100.00
12987;BME280;58897;51.960;5.582;2023-02-13T00:17:19;103487.06;;;6.92;100.00
12987;BME280;58897;51.960;5.582;2023-02-13T00:19:45;103497.25;;;6.86;100.00
12987;BME280;58897;51.960;5.582;2023-02-13T00:22:12;103482.56;;;6.93;100.00
12987;BME280;58897;51.960;5.582;2023-02-13T00:24:38;103480.66;;;6.95;100.00
12987;BME280;58897;51.960;5.582;2023-02-13T00:27:05;103474.00;;;7.02;100.00
12987;BME280;58897;51.960;5.582;2023-02-13T00:29:31;103472.50;;;6.96;100.00
12987;BME280;58897;51.960;5.582;2023-02-13T00:31:58;103474.41;;;6.94;100.00
12987;BME280;58897;51.960;5.582;2023-02-13T00:34:26;103477.31;;;6.90;100.00
12987;BME280;58897;51.960;5.582;2023-02-13T00:36:52;103471.81;;;6.93;100.00
12987;BME280;58897;51.960;5.582;2023-02-13T00:39:19;103476.06;;;6.97;100.00
12987;BME280;58897;51.960;5.582;2023-02-13T00:41:45;103477.41;;;6.88;100.00
12987;BME280;58897;51.960;5.582;2023-02-13T00:44:12;103482.78;;;6.88;100.00
12987;BME280;58897;51.960;5.582;2023-02-13T00:46:38;103476.38;;;6.91;100.00
12987;BME280;58897;51.960;5.582;2023-02-13T00:49:05;103476.59;;;6.86;100.00
12987;BME280;58897;51.960;5.582;2023-02-13T00:51:32;103479.91;;;6.91;100.00
12987;BME280;58897;51.960;5.582;2023-02-13T00:53:58;103476.91;;;6.80;100.00
12987;BME280;58897;51.960;5.582;2023-02-13T00:56:24;103478.34;;;6.87;100.00
12987;BME280;58897;51.960;5.582;2023-02-13T00:58:51;103474.63;;;6.90;100.00
12987;BME280;58897;51.960;5.582;2023-02-13T01:01:18;103464.44;;;6.96;100.00
12987;BME280;58897;51.960;5.582;2023-02-13T01:03:44;103476.31;;;6.92;100.00
12987;BME280;58897;51.960;5.582;2023-02-13T01:06:11;103474.72;;;6.88;100.00
12987;BME280;58897;51.960;5.582;2023-02-13T01:08:38;103470.28;;;6.87;100.00
12987;BME280;58897;51.960;5.582;2023-02-13T01:11:05;103477.31;;;6.90;100.00
12987;BME280;58897;51.960;5.582;2023-02-13T01:13:32;103475.75;;;6.86;100.00
12987;BME280;58897;51.960;5.582;2023-02-13T01:15:59;103475.66;;;6.87;100.00
12987;BME280;58897;51.960;5.582;2023-02-13T01:18:26;103482.63;;;6.91;100.00
12987;BME280;58897;51.960;5.582;2023-02-13T01:20:59;103473.47;;;6.95;100.00
12987;BME280;58897;51.960;5.582;2023-02-13T01:23:29;103486.91;;;6.95;100.00
12987;BME280;58897;51.960;5.582;2023-02-13T01:25:57;103478.44;;;6.86;100.00
12987;BME280;58897;51.960;5.582;2023-02-13T01:28:23;103474.41;;;6.94;100.00
12987;BME280;58897;51.960;5.582;2023-02-13T01:30:54;103469.75;;;6.98;100.00
12987;BME280;58897;51.960;5.582;2023-02-13T01:33:23;103468.34;;;6.91;100.00
12987;BME280;58897;51.960;5.582;2023-02-13T01:35:50;103456.94;;;6.86;100.00
12987;BME280;58897;51.960;5.582;2023-02-13T01:38:17;103463.41;;;6.81;100.00
12987;BME280;58897;51.960;5.582;2023-02-13T01:40:49;103463.41;;;6.81;100.00
12987;BME280;58897;51.960;5.582;2023-02-13T01:43:17;103469.56;;;6.83;100.00
12987;BME280;58897;51.960;5.582;2023-02-13T01:45:46;103462.09;;;6.90;100.00
12987;BME280;58897;51.960;5.582;2023-02-13T01:48:18;103457.59;;;6.91;100.00
12987;BME280;58897;51.960;5.582;2023-02-13T01:50:59;103451.25;;;6.92;100.00
12987;BME280;58897;51.960;5.582;2023-02-13T01:53:38;103450.22;;;6.94;100.00
12987;BME280;58897;51.960;5.582;2023-02-13T01:56:26;103449.44;;;6.92;100.00
12987;BME280;58897;51.960;5.582;2023-02-13T01:58:57;103448.56;;;6.92;100.00
12987;BME280;58897;51.960;5.582;2023-02-13T02:01:26;103445.16;;;6.88;100.00
12987;BME280;58897;51.960;5.582;2023-02-13T02:04:02;103443.50;;;6.86;100.00
12987;BME280;58897;51.960;5.582;2023-02-13T02:06:39;103449.72;;;6.86;100.00
12987;BME280;58897;51.960;5.582;2023-02-13T02:09:14;103447.53;;;6.94;100.00
12987;BME280;58897;51.960;5.582;2023-02-13T02:12:00;103445.06;;;6.90;100.00
12987;BME280;58897;51.960;5.582;2023-02-13T02:14:30;103445.38;;;6.83;100.00
12987;BME280;58897;51.960;5.582;2023-02-13T02:16:56;103450.31;;;6.93;100.00
12987;BME280;58897;51.960;5.582;2023-02-13T02:19:41;103443.97;;;6.94;100.00
12987;BME280;58897;51.960;5.582;2023-02-13T02:34:31;103447.78;;;6.90;100.00
12987;BME280;58897;51.960;5.582;2023-02-13T02:40:27;103440.63;;;6.89;100.00
12987;BME280;58897;51.960;5.582;2023-02-13T02:43:22;103439.72;;;6.90;100.00
12987;BME280;58897;51.960;5.582;2023-02-13T02:46:20;103441.75;;;6.84;100.00
12987;BME280;58897;51.960;5.582;2023-02-13T02:49:06;103446.09;;;6.87;100.00
12987;BME280;58897;51.960;5.582;2023-02-13T02:57:31;103438.97;;;6.86;100.00
12987;BME280;58897;51.960;5.582;2023-02-13T03:00:19;103440.63;;;6.89;100.00
12987;BME280;58897;51.960;5.582;2023-02-13T03:03:21;103437.31;;;6.83;100.00
12987;BME280;58897;51.960;5.582;2023-02-13T03:06:15;103433.59;;;6.86;100.00
12987;BME280;58897;51.960;5.582;2023-02-13T03:08:57;103438.03;;;6.87;100.00
12987;BME280;58897;51.960;5.582;2023-02-13T03:11:51;103435.66;;;6.81;100.00
12987;BME280;58897;51.960;5.582;2023-02-13T03:14:42;103433.59;;;6.86;100.00
12987;BME280;58897;51.960;5.582;2023-02-13T03:17:21;103441.91;;;6.81;100.00
12987;BME280;58897;51.960;5.582;2023-02-13T03:24:03;103437.91;;;6.90;100.00
12987;BME280;58897;51.960;5.582;2023-02-13T03:29:45;103445.53;;;6.80;100.00
12987;BME280;58897;51.960;5.582;2023-02-13T03:41:23;103457.75;;;6.69;100.00
12987;BME280;58897;51.960;5.582;2023-02-13T03:47:00;103447.75;;;6.72;100.00
12987;BME280;58897;51.960;5.582;2023-02-13T03:49:42;103449.41;;;6.75;100.00
12987;BME280;58897;51.960;5.582;2023-02-13T03:52:52;103444.81;;;6.77;100.00
12987;BME280;58897;51.960;5.582;2023-02-13T03:55:24;103453.38;;;6.85;100.00
12987;BME280;58897;51.960;5.582;2023-02-13T03:58:25;103448.22;;;6.80;100.00
12987;BME280;58897;51.960;5.582;2023-02-13T04:01:14;103442.00;;;6.80;100.00
12987;BME280;58897;51.960;5.582;2023-02-13T04:03:50;103449.09;;;6.81;100.00
12987;BME280;58897;51.960;5.582;2023-02-13T04:06:25;103447.44;;;6.78;100.00
12987;BME280;58897;51.960;5.582;2023-02-13T04:08:57;103454.84;;;6.73;100.00
12987;BME280;58897;51.960;5.582;2023-02-13T04:11:29;103459.97;;;6.78;100.00
12987;BME280;58897;51.960;5.582;2023-02-13T04:14:16;103452.88;;;6.77;100.00
12987;BME280;58897;51.960;5.582;2023-02-13T04:16:49;103446.00;;;6.71;100.00
12987;BME280;58897;51.960;5.582;2023-02-13T04:19:20;103450.25;;;6.75;100.00
12987;BME280;58897;51.960;5.582;2023-02-13T04:21:50;103449.41;;;6.75;100.00
12987;BME280;58897;51.960;5.582;2023-02-13T04:24:20;103448.53;;;6.74;100.00
12987;BME280;58897;51.960;5.582;2023-02-13T04:26:47;103444.16;;;6.91;100.00
12987;BME280;58897;51.960;5.582;2023-02-13T04:29:21;103446.00;;;6.89;100.00
12987;BME280;58897;51.960;5.582;2023-02-13T04:31:51;103445.06;;;6.90;100.00
12987;BME280;58897;51.960;5.582;2023-02-13T04:34:18;103439.47;;;6.94;100.00
12987;BME280;58897;51.960;5.582;2023-02-13T04:36:45;103444.16;;;6.91;100.00
12987;BME280;58897;51.960;5.582;2023-02-13T04:39:12;103443.91;;;6.95;100.00
12987;BME280;58897;51.960;5.582;2023-02-13T04:41:41;103447.69;;;6.91;100.00
12987;BME280;58897;51.960;5.582;2023-02-13T04:44:09;103439.47;;;6.94;100.00
12987;BME280;58897;51.960;5.582;2023-02-13T04:46:37;103438.91;;;6.88;100.00
12987;BME280;58897;51.960;5.582;2023-02-13T04:49:04;103447.84;;;6.88;100.00
12987;BME280;58897;51.960;5.582;2023-02-13T04:51:31;103442.94;;;6.96;100.00
12987;BME280;58897;51.960;5.582;2023-02-13T04:53:57;103442.63;;;7.02;100.00
12987;BME280;58897;51.960;5.582;2023-02-13T04:56:27;103439.31;;;6.97;100.00
12987;BME280;58897;51.960;5.582;2023-02-13T04:58:56;103438.59;;;6.94;100.00
12987;BME280;58897;51.960;5.582;2023-02-13T05:01:23;103430.84;;;6.88;100.00
12987;BME280;58897;51.960;5.582;2023-02-13T05:03:50;103434.19;;;6.93;100.00
12987;BME280;58897;51.960;5.582;2023-02-13T05:06:17;103430.13;;;6.84;100.00
12987;BME280;58897;51.960;5.582;2023-02-13T05:08:43;103429.41;;;6.80;100.00
12987;BME280;58897;51.960;5.582;2023-02-13T05:11:13;103420.41;;;6.81;100.00
12987;BME280;58897;51.960;5.582;2023-02-13T05:13:40;103421.34;;;6.80;100.00
12987;BME280;58897;51.960;5.582;2023-02-13T05:16:09;103414.16;;;6.81;100.00
12987;BME280;58897;51.960;5.582;2023-02-13T05:18:36;103415.44;;;6.74;100.00
12987;BME280;58897;51.960;5.582;2023-02-13T05:21:06;103419.00;;;6.74;100.00
12987;BME280;58897;51.960;5.582;2023-02-13T05:23:53;103420.72;;;6.75;100.00
12987;BME280;58897;51.960;5.582;2023-02-13T05:26:20;103412.44;;;6.80;100.00
12987;BME280;58897;51.960;5.582;2023-02-13T05:28:54;103415.81;;;6.83;100.00
12987;BME280;58897;51.960;5.582;2023-02-13T05:31:39;103407.63;;;6.87;100.00
12987;BME280;58897;51.960;5.582;2023-02-13T05:34:15;103406.53;;;6.91;100.00
12987;BME280;58897;51.960;5.582;2023-02-13T05:36:45;103407.47;;;6.90;100.00
12987;BME280;58897;51.960;5.582;2023-02-13T05:39:16;103407.84;;;6.82;100.00
12987;BME280;58897;51.960;5.582;2023-02-13T05:41:45;103403.75;;;6.92;100.00
12987;BME280;58897;51.960;5.582;2023-02-13T05:44:13;103407.63;;;6.87;100.00
12987;BME280;58897;51.960;5.582;2023-02-13T05:46:42;103409.38;;;6.88;100.00
12987;BME280;58897;51.960;5.582;2023-02-13T05:49:12;103407.22;;;6.94;100.00
12987;BME280;58897;51.960;5.582;2023-02-13T05:51:47;103410.06;;;6.91;100.00
12987;BME280;58897;51.960;5.582;2023-02-13T05:54:20;103399.72;;;7.01;100.00
12987;BME280;58897;51.960;5.582;2023-02-13T05:56:54;103407.38;;;6.91;100.00
12987;BME280;58897;51.960;5.582;2023-02-13T05:59:21;103400.66;;;7.00;100.00
12987;BME280;58897;51.960;5.582;2023-02-13T06:01:49;103408.88;;;6.97;100.00
12987;BME280;58897;51.960;5.582;2023-02-13T06:04:22;103407.69;;;7.02;100.00
12987;BME280;58897;51.960;5.582;2023-02-13T06:06:50;103405.25;;;6.98;100.00
12987;BME280;58897;51.960;5.582;2023-02-13T06:09:22;103407.94;;;6.98;100.00
12987;BME280;58897;51.960;5.582;2023-02-13T06:11:50;103403.59;;;6.95;100.00
12987;BME280;58897;51.960;5.582;2023-02-13T06:14:20;103409.13;;;6.92;100.00
12987;BME280;58897;51.960;5.582;2023-02-13T06:16:47;103412.53;;;6.96;100.00
12987;BME280;58897;51.960;5.582;2023-02-13T06:19:14;103403.34;;;7.00;100.00
12987;BME280;58897;51.960;5.582;2023-02-13T06:21:46;103413.38;;;6.96;100.00
12987;BME280;58897;51.960;5.582;2023-02-13T06:24:13;103413.22;;;6.82;100.00
12987;BME280;58897;51.960;5.582;2023-02-13T06:26:40;103410.25;;;6.88;100.00
12987;BME280;58897;51.960;5.582;2023-02-13T06:29:07;103414.41;;;6.76;100.00
12987;BME280;58897;51.960;5.582;2023-02-13T06:31:38;103416.34;;;6.73;100.00
12987;BME280;58897;51.960;5.582;2023-02-13T06:34:05;103422.59;;;6.73;100.00
12987;BME280;58897;51.960;5.582;2023-02-13T06:36:32;103420.44;;;6.63;100.00
12987;BME280;58897;51.960;5.582;2023-02-13T06:39:01;103424.25;;;6.59;100.00
12987;BME280;58897;51.960;5.582;2023-02-13T06:41:31;103427.97;;;6.38;100.00
12987;BME280;58897;51.960;5.582;2023-02-13T06:43:58;103422.88;;;6.50;100.00
12987;BME280;58897;51.960;5.582;2023-02-13T06:46:25;103428.88;;;6.55;100.00
12987;BME280;58897;51.960;5.582;2023-02-13T06:48:55;103432.47;;;6.37;100.00
12987;BME280;58897;51.960;5.582;2023-02-13T06:51:25;103437.03;;;6.35;100.00
12987;BME280;58897;51.960;5.582;2023-02-13T06:53:52;103441.13;;;6.25;100.00
12987;BME280;58897;51.960;5.582;2023-02-13T06:56:19;103442.78;;;6.28;100.00
12987;BME280;58897;51.960;5.582;2023-02-13T06:58:46;103442.69;;;6.29;100.00
12987;BME280;58897;51.960;5.582;2023-02-13T07:01:16;103449.31;;;6.22;100.00
12987;BME280;58897;51.960;5.582;2023-02-13T07:03:48;103450.09;;;6.24;100.00
12987;BME280;58897;51.960;5.582;2023-02-13T07:06:20;103449.72;;;6.13;100.00
12987;BME280;58897;51.960;5.582;2023-02-13T07:08:48;103451.09;;;6.03;100.00
12987;BME280;58897;51.960;5.582;2023-02-13T07:11:24;103454.44;;;6.08;100.00
12987;BME280;58897;51.960;5.582;2023-02-13T07:13:52;103448.06;;;6.10;100.00
12987;BME280;58897;51.960;5.582;2023-02-13T07:16:22;103457.13;;;6.08;100.00
12987;BME280;58897;51.960;5.582;2023-02-13T07:18:49;103460.31;;;6.16;100.00
12987;BME280;58897;51.960;5.582;2023-02-13T07:21:21;103458.25;;;6.22;100.00
12987;BME280;58897;51.960;5.582;2023-02-13T07:23:51;103458.50;;;6.16;100.00
12987;BME280;58897;51.960;5.582;2023-02-13T07:26:20;103460.47;;;6.32;100.00
12987;BME280;58897;51.960;5.582;2023-02-13T07:28:50;103462.88;;;6.38;100.00
12987;BME280;58897;51.960;5.582;2023-02-13T07:31:35;103459.81;;;6.45;100.00
12987;BME280;58897;51.960;5.582;2023-02-13T07:34:03;103467.59;;;6.51;100.00
12987;BME280;58897;51.960;5.582;2023-02-13T07:36:30;103460.31;;;6.53;100.00
12987;BME280;58897;51.960;5.582;2023-02-13T07:38:57;103459.41;;;6.54;100.00
12987;BME280;58897;51.960;5.582;2023-02-13T07:41:24;103462.13;;;6.71;100.00
12987;BME280;58897;51.960;5.582;2023-02-13T07:43:53;103457.16;;;6.81;100.00
12987;BME280;58897;51.960;5.582;2023-02-13T07:46:20;103458.75;;;6.85;100.00
12987;BME280;58897;51.960;5.582;2023-02-13T07:48:50;103458.25;;;6.77;100.00
12987;BME280;58897;51.960;5.582;2023-02-13T07:51:20;103456.22;;;6.99;100.00
12987;BME280;58897;51.960;5.582;2023-02-13T07:53:51;103452.44;;;7.20;100.00
12987;BME280;58897;51.960;5.582;2023-02-13T07:56:19;103452.94;;;7.28;100.00
12987;BME280;58897;51.960;5.582;2023-02-13T07:58:46;103454.53;;;7.32;100.00
12987;BME280;58897;51.960;5.582;2023-02-13T08:01:15;103447.47;;;7.47;100.00
12987;BME280;58897;51.960;5.582;2023-02-13T08:03:42;103444.47;;;7.53;100.00
12987;BME280;58897;51.960;5.582;2023-02-13T08:06:13;103437.81;;;7.43;100.00
12987;BME280;58897;51.960;5.582;2023-02-13T08:08:41;103448.56;;;7.43;100.00
12987;BME280;58897;51.960;5.582;2023-02-13T08:11:27;103449.38;;;7.45;100.00
12987;BME280;58897;51.960;5.582;2023-02-13T08:14:19;103449.53;;;7.42;100.00
12987;BME280;58897;51.960;5.582;2023-02-13T08:16:46;103457.44;;;7.45;100.00
12987;BME280;58897;51.960;5.582;2023-02-13T08:19:16;103456.69;;;7.59;100.00
12987;BME280;58897;51.960;5.582;2023-02-13T08:21:46;103459.47;;;7.57;100.00
12987;BME280;58897;51.960;5.582;2023-02-13T08:24:13;103468.13;;;7.64;100.00
12987;BME280;58897;51.960;5.582;2023-02-13T08:26:42;103469.38;;;7.74;100.00
12987;BME280;58897;51.960;5.582;2023-02-13T08:29:09;103470.50;;;7.85;100.00
12987;BME280;58897;51.960;5.582;2023-02-13T08:31:37;103471.44;;;8.01;100.00
12987;BME280;58897;51.960;5.582;2023-02-13T08:34:06;103473.34;;;7.82;100.00
12987;BME280;58897;51.960;5.582;2023-02-13T08:36:35;103464.78;;;8.24;100.00
12987;BME280;58897;51.960;5.582;2023-02-13T08:39:02;103464.31;;;8.33;100.00
12987;BME280;58897;51.960;5.582;2023-02-13T08:41:39;103459.97;;;8.46;100.00
12987;BME280;58897;51.960;5.582;2023-02-13T08:44:09;103462.13;;;8.55;100.00
12987;BME280;58897;51.960;5.582;2023-02-13T08:46:44;103456.47;;;8.91;100.00
12987;BME280;58897;51.960;5.582;2023-02-13T08:49:11;103455.09;;;9.14;100.00
12987;BME280;58897;51.960;5.582;2023-02-13T08:51:38;103445.00;;;9.61;100.00
12987;BME280;58897;51.960;5.582;2023-02-13T08:54:05;103446.78;;;10.74;100.00
12987;BME280;58897;51.960;5.582;2023-02-13T08:56:32;103435.63;;;12.56;100.00
12987;BME280;58897;51.960;5.582;2023-02-13T08:59:03;103441.22;;;12.29;100.00
12987;BME280;58897;51.960;5.582;2023-02-13T09:01:32;103424.66;;;13.29;100.00
12987;BME280;58897;51.960;5.582;2023-02-13T09:03:59;103422.28;;;14.48;100.00
12987;BME280;58897;51.960;5.582;2023-02-13T09:06:26;103427.59;;;13.26;100.00
12987;BME280;58897;51.960;5.582;2023-02-13T09:08:59;103422.53;;;13.21;100.00
12987;BME280;58897;51.960;5.582;2023-02-13T09:11:26;103421.53;;;15.41;100.00
12987;BME280;58897;51.960;5.582;2023-02-13T09:13:54;103422.72;;;16.59;100.00
12987;BME280;58897;51.960;5.582;2023-02-13T09:16:23;103427.31;;;14.63;100.00
12987;BME280;58897;51.960;5.582;2023-02-13T09:18:53;103427.09;;;13.89;100.00
12987;BME280;58897;51.960;5.582;2023-02-13T09:21:21;103426.72;;;15.65;100.00
12987;BME280;58897;51.960;5.582;2023-02-13T09:23:52;103421.97;;;15.57;100.00
12987;BME280;58897;51.960;5.582;2023-02-13T09:26:23;103412.97;;;16.76;100.00
12987;BME280;58897;51.960;5.582;2023-02-13T09:28:58;103405.69;;;20.85;77.83
12987;BME280;58897;51.960;5.582;2023-02-13T09:31:24;103409.16;;;21.52;61.26
12987;BME280;58897;51.960;5.582;2023-02-13T09:33:54;103416.47;;;19.95;68.24
12987;BME280;58897;51.960;5.582;2023-02-13T09:36:23;103420.38;;;18.53;79.00
12987;BME280;58897;51.960;5.582;2023-02-13T09:38:55;103428.84;;;15.40;100.00
12987;BME280;58897;51.960;5.582;2023-02-13T09:41:28;103422.59;;;15.29;100.00
12987;BME280;58897;51.960;5.582;2023-02-13T09:46:34;103425.06;;;13.46;100.00
12987;BME280;58897;51.960;5.582;2023-02-13T09:49:07;103432.97;;;12.67;100.00
12987;BME280;58897;51.960;5.582;2023-02-13T09:51:37;103435.94;;;12.52;100.00
12987;BME280;58897;51.960;5.582;2023-02-13T09:54:06;103420.41;;;14.26;100.00
12987;BME280;58897;51.960;5.582;2023-02-13T09:59:56;103423.41;;;15.40;100.00
12987;BME280;58897;51.960;5.582;2023-02-13T10:08:00;103421.16;;;14.28;100.00
12987;BME280;58897;51.960;5.582;2023-02-13T10:10:41;103428.16;;;13.07;100.00
12987;BME280;58897;51.960;5.582;2023-02-13T10:16:22;103426.88;;;14.36;100.00
12987;BME280;58897;51.960;5.582;2023-02-13T10:19:10;103424.41;;;14.33;100.00
12987;BME280;58897;51.960;5.582;2023-02-13T10:21:47;103421.47;;;13.46;100.00
12987;BME280;58897;51.960;5.582;2023-02-13T10:24:58;103418.06;;;13.55;100.00
12987;BME280;58897;51.960;5.582;2023-02-13T10:30:07;103419.09;;;14.20;100.00
12987;BME280;58897;51.960;5.582;2023-02-13T10:35:29;103412.31;;;15.32;100.00
12987;BME280;58897;51.960;5.582;2023-02-13T10:37:59;103421.78;;;14.20;100.00
12987;BME280;58897;51.960;5.582;2023-02-13T10:40:37;103424.25;;;14.57;100.00
12987;BME280;58897;51.960;5.582;2023-02-13T10:43:09;103418.78;;;15.20;100.00
12987;BME280;58897;51.960;5.582;2023-02-13T10:45:54;103417.69;;;15.85;100.00
12987;BME280;58897;51.960;5.582;2023-02-13T10:51:48;103412.78;;;15.58;100.00
12987;BME280;58897;51.960;5.582;2023-02-13T11:00:21;103409.00;;;16.00;100.00
12987;BME280;58897;51.960;5.582;2023-02-13T11:02:50;103407.13;;;16.41;100.00
12987;BME280;58897;51.960;5.582;2023-02-13T11:05:22;103400.78;;;15.08;100.00
12987;BME280;58897;51.960;5.582;2023-02-13T11:07:56;103392.13;;;16.75;100.00
12987;BME280;58897;51.960;5.582;2023-02-13T11:10:28;103397.16;;;16.80;100.00
12987;BME280;58897;51.960;5.582;2023-02-13T11:12:55;103394.50;;;16.00;100.00
12987;BME280;58897;51.960;5.582;2023-02-13T11:15:26;103395.66;;;16.47;100.00
12987;BME280;58897;51.960;5.582;2023-02-13T11:18:12;103379.63;;;16.73;100.00
12987;BME280;58897;51.960;5.582;2023-02-13T11:20:42;103389.19;;;16.48;100.00
12987;BME280;58897;51.960;5.582;2023-02-13T11:26:00;103381.09;;;16.96;100.00
12987;BME280;58897;51.960;5.582;2023-02-13T11:28:29;103383.81;;;16.27;100.00
12987;BME280;58897;51.960;5.582;2023-02-13T11:31:26;103384.00;;;15.65;100.00
12987;BME280;58897;51.960;5.582;2023-02-13T11:33:54;103374.19;;;15.12;100.00
12987;BME280;58897;51.960;5.582;2023-02-13T11:36:30;103358.06;;;17.17;99.33
12987;BME280;58897;51.960;5.582;2023-02-13T11:41:29;103355.50;;;16.97;100.00
12987;BME280;58897;51.960;5.582;2023-02-13T11:43:59;103361.53;;;16.72;98.96
12987;BME280;58897;51.960;5.582;2023-02-13T11:46:29;103362.09;;;16.56;97.19
12987;BME280;58897;51.960;5.582;2023-02-13T11:49:00;103358.94;;;16.99;95.82
12987;BME280;58897;51.960;5.582;2023-02-13T11:54:05;103356.16;;;17.93;91.31
12987;BME280;58897;51.960;5.582;2023-02-13T11:56:51;103361.97;;;17.71;90.69
12987;BME280;58897;51.960;5.582;2023-02-13T11:59:39;103353.28;;;17.29;94.31
12987;BME280;58897;51.960;5.582;2023-02-13T12:02:14;103354.00;;;17.41;93.32
12987;BME280;58897;51.960;5.582;2023-02-13T12:04:42;103347.44;;;16.95;91.94
12987;BME280;58897;51.960;5.582;2023-02-13T12:07:25;103340.63;;;17.38;98.56
12987;BME280;58897;51.960;5.582;2023-02-13T12:10:00;103338.34;;;16.37;98.13
12987;BME280;58897;51.960;5.582;2023-02-13T12:12:34;103340.84;;;17.07;97.85
12987;BME280;58897;51.960;5.582;2023-02-13T12:15:14;103335.28;;;17.46;92.56
12987;BME280;58897;51.960;5.582;2023-02-13T12:17:44;103341.16;;;17.51;94.50
12987;BME280;58897;51.960;5.582;2023-02-13T12:20:16;103333.94;;;16.75;93.91
12987;BME280;58897;51.960;5.582;2023-02-13T12:25:28;103344.38;;;15.82;100.00
12987;BME280;58897;51.960;5.582;2023-02-13T12:28:14;103325.41;;;17.35;95.85
12987;BME280;58897;51.960;5.582;2023-02-13T12:31:04;103319.41;;;18.23;89.02
12987;BME280;58897;51.960;5.582;2023-02-13T12:36:41;103319.72;;;17.93;92.14
12987;BME280;58897;51.960;5.582;2023-02-13T12:39:39;103324.06;;;18.13;88.76
12987;BME280;58897;51.960;5.582;2023-02-13T12:46:08;103322.28;;;18.04;89.60
12987;BME280;58897;51.960;5.582;2023-02-13T12:51:34;103316.78;;;17.30;90.69
12987;BME280;58897;51.960;5.582;2023-02-13T12:54:38;103308.16;;;18.53;89.99
12987;BME280;58897;51.960;5.582;2023-02-13T13:00:17;103300.97;;;19.13;81.16
12987;BME280;58897;51.960;5.582;2023-02-13T13:03:22;103302.13;;;17.68;91.29
12987;BME280;58897;51.960;5.582;2023-02-13T13:09:19;103302.81;;;18.52;90.08
12987;BME280;58897;51.960;5.582;2023-02-13T13:14:47;103293.59;;;18.25;89.82
12987;BME280;58897;51.960;5.582;2023-02-13T13:17:56;103297.72;;;17.57;87.85
12987;BME280;58897;51.960;5.582;2023-02-13T13:23:42;103279.53;;;17.29;89.89
12987;BME280;58897;51.960;5.582;2023-02-13T13:29:05;103264.16;;;18.37;91.08
12987;BME280;58897;51.960;5.582;2023-02-13T13:31:36;103264.25;;;19.06;84.61
12987;BME280;58897;51.960;5.582;2023-02-13T13:34:07;103271.78;;;17.71;86.05
12987;BME280;58897;51.960;5.582;2023-02-13T13:37:06;103263.13;;;17.39;94.81
12987;BME280;58897;51.960;5.582;2023-02-13T13:50:30;103246.41;;;18.06;88.94
12987;BME280;58897;51.960;5.582;2023-02-13T13:53:08;103237.03;;;17.81;90.61
12987;BME280;58897;51.960;5.582;2023-02-13T14:03:56;103239.56;;;17.92;91.34
12987;BME280;58897;51.960;5.582;2023-02-13T14:06:24;103239.72;;;16.13;100.00
12987;BME280;58897;51.960;5.582;2023-02-13T14:08:57;103240.28;;;16.26;100.00
12987;BME280;58897;51.960;5.582;2023-02-13T14:13:56;103225.78;;;17.29;99.75
12987;BME280;58897;51.960;5.582;2023-02-13T14:16:43;103230.03;;;16.95;99.42
12987;BME280;58897;51.960;5.582;2023-02-13T14:19:28;103239.97;;;16.00;100.00
12987;BME280;58897;51.960;5.582;2023-02-13T14:25:20;103230.09;;;16.66;100.00
12987;BME280;58897;51.960;5.582;2023-02-13T14:27:58;103226.31;;;16.96;100.00
12987;BME280;58897;51.960;5.582;2023-02-13T14:30:32;103223.38;;;16.71;100.00
12987;BME280;58897;51.960;5.582;2023-02-13T14:33:05;103226.06;;;16.51;100.00
12987;BME280;58897;51.960;5.582;2023-02-13T14:35:34;103225.66;;;16.65;100.00
12987;BME280;58897;51.960;5.582;2023-02-13T14:38:20;103222.75;;;16.10;100.00
12987;BME280;58897;51.960;5.582;2023-02-13T14:40:50;103223.47;;;16.12;100.00
12987;BME280;58897;51.960;5.582;2023-02-13T14:43:52;103218.25;;;15.70;100.00
12987;BME280;58897;51.960;5.582;2023-02-13T14:46:33;103209.09;;;15.81;100.00
12987;BME280;58897;51.960;5.582;2023-02-13T14:49:22;103213.09;;;15.37;100.00
12987;BME280;58897;51.960;5.582;2023-02-13T14:51:54;103213.28;;;15.45;100.00
12987;BME280;58897;51.960;5.582;2023-02-13T14:54:41;103207.81;;;15.45;100.00
12987;BME280;58897;51.960;5.582;2023-02-13T14:57:22;103213.00;;;15.18;100.00
12987;BME280;58897;51.960;5.582;2023-02-13T14:59:58;103206.09;;;14.42;100.00
12987;BME280;58897;51.960;5.582;2023-02-13T15:02:34;103203.56;;;14.50;100.00
12987;BME280;58897;51.960;5.582;2023-02-13T15:05:06;103208.75;;;14.33;100.00
12987;BME280;58897;51.960;5.582;2023-02-13T15:07:36;103200.78;;;14.09;100.00
12987;BME280;58897;51.960;5.582;2023-02-13T15:12:58;103202.72;;;13.75;100.00
12987;BME280;58897;51.960;5.582;2023-02-13T15:15:34;103209.13;;;13.85;100.00
12987;BME280;58897;51.960;5.582;2023-02-13T15:18:07;103213.75;;;13.63;100.00
12987;BME280;58897;51.960;5.582;2023-02-13T15:20:36;103210.78;;;13.66;100.00
12987;BME280;58897;51.960;5.582;2023-02-13T15:23:04;103208.41;;;13.61;100.00
12987;BME280;58897;51.960;5.582;2023-02-13T15:25:38;103208.84;;;13.23;100.00
12987;BME280;58897;51.960;5.582;2023-02-13T15:28:18;103205.25;;;13.12;100.00
12987;BME280;58897;51.960;5.582;2023-02-13T15:31:16;103207.59;;;13.27;100.00